Time;durP1;ratioP1;P1;durP2;ratioP2;P2;SDS_P1;SDS_P2;PMS_P1;PMS_P2;Temp;Humidity;BMP_temperature;BMP_pressure;BME280_temperature;BME280_humidity;BME280_pressure;Samples;Min_cycle;Max_cycle;Signal;HPM_P1;HPM_P2
2023/02/24 00:00:36;;;;;;;13.73;7.70;;;;;;;7.27;68.71;94829.38;5086111;28;20485;-77
2023/02/24 00:03:05;;;;;;;14.75;7.72;;;;;;;6.58;69.13;94745.50;5065638;28;20410;-77
2023/02/24 00:05:34;;;;;;;13.65;7.38;;;;;;;7.14;69.21;94836.31;5076097;28;20040;-77
2023/02/24 00:08:00;;;;;;;12.23;7.60;;;;;;;7.20;69.10;94837.66;5085248;28;20029;-76
2023/02/24 00:10:26;;;;;;;14.68;7.85;;;;;;;6.61;68.92;94756.44;5074696;28;20509;-77
2023/02/24 00:12:52;;;;;;;16.05;7.85;;;;;;;7.21;69.09;94829.78;5069927;28;20027;-77
2023/02/24 00:15:19;;;;;;;11.75;7.28;;;;;;;6.71;70.55;94826.31;5080617;28;20020;-78
2023/02/24 00:17:45;;;;;;;11.68;6.43;;;;;;;6.71;70.67;94834.91;5067879;28;20413;-78
2023/02/24 00:20:11;;;;;;;12.63;7.13;;;;;;;6.50;71.56;94826.00;5082142;28;20020;-78
2023/02/24 00:22:40;;;;;;;10.32;6.60;;;;;;;6.41;71.80;94818.88;5083016;28;20043;-78
2023/02/24 00:25:06;;;;;;;12.13;7.10;;;;;;;6.61;71.26;94818.38;5066284;28;20086;-77
2023/02/24 00:27:31;;;;;;;13.80;7.32;;;;;;;6.58;70.88;94789.38;5067594;28;20040;-78
2023/02/24 00:29:57;;;;;;;14.68;7.22;;;;;;;6.32;70.53;94760.13;5078345;28;20035;-78
2023/02/24 00:32:22;;;;;;;12.63;7.72;;;;;;;6.75;70.54;94822.63;5066123;28;20451;-77
2023/02/24 00:34:48;;;;;;;11.32;6.78;;;;;;;6.81;70.12;94821.38;5084176;28;20119;-78
2023/02/24 00:37:22;;;;;;;13.48;7.07;;;;;;;6.51;71.23;94819.91;5070993;28;20086;-78
2023/02/24 00:39:49;;;;;;;13.35;6.38;;;;;;;6.31;71.49;94792.84;5082511;28;20145;-78
2023/02/24 00:42:14;;;;;;;12.23;6.78;;;;;;;6.53;71.37;94815.47;5081868;28;20048;-77
2023/02/24 00:44:43;;;;;;;15.27;7.40;;;;;;;6.67;70.70;94822.31;5084764;28;20032;-78
2023/02/24 00:47:09;;;;;;;12.95;6.90;;;;;;;6.41;70.59;94793.91;5069734;28;20033;-78
2023/02/24 00:49:35;;;;;;;11.70;6.72;;;;;;;5.67;71.24;94705.03;5074782;28;20052;-77
2023/02/24 00:52:03;;;;;;;12.20;6.50;;;;;;;6.24;71.93;94819.97;5081281;28;20029;-78
2023/02/24 00:54:29;;;;;;;11.75;6.43;;;;;;;6.06;71.48;94754.13;5075467;28;20020;-78
2023/02/24 00:56:54;;;;;;;13.00;6.30;;;;;;;6.50;70.99;94813.09;5076252;28;20491;-78
2023/02/24 00:59:23;;;;;;;12.60;6.22;;;;;;;6.42;71.18;94811.03;5070015;28;20089;-78
2023/02/24 01:01:49;;;;;;;10.57;6.22;;;;;;;5.50;72.11;94713.88;5072806;28;20029;-77
2023/02/24 01:04:14;;;;;;;11.32;6.60;;;;;;;5.92;71.45;94734.38;5057332;28;20110;-78
2023/02/24 01:06:42;;;;;;;11.55;6.18;;;;;;;5.90;71.64;94743.97;5042386;28;20037;-77
2023/02/24 01:09:11;;;;;;;10.70;6.13;;;;;;;6.37;71.36;94789.03;5067500;28;20101;-78
2023/02/24 01:14:23;;;;;;;11.75;6.05;;;;;;;6.48;70.82;94794.31;5062654;28;20039;-78
2023/02/24 01:16:51;;;;;;;10.85;5.90;;;;;;;5.81;70.90;94702.38;5060172;28;20041;-78
2023/02/24 01:19:18;;;;;;;10.80;5.50;;;;;;;6.55;70.54;94798.16;5053918;28;20055;-78
2023/02/24 01:21:44;;;;;;;12.32;6.43;;;;;;;6.52;70.04;94777.72;5057345;28;20032;-79
2023/02/24 01:24:10;;;;;;;10.23;6.20;;;;;;;6.38;70.87;94794.13;5065132;28;20414;-79
2023/02/24 01:26:36;;;;;;;10.73;6.90;;;;;;;5.98;70.84;94729.66;5053905;28;20033;-78
2023/02/24 01:29:08;;;;;;;9.52;5.75;;;;;;;6.18;71.92;94779.09;5067983;28;20033;-78
2023/02/24 01:31:35;;;;;;;13.75;6.18;;;;;;;5.81;71.28;94706.72;5070678;28;20389;-78
2023/02/24 01:34:04;;;;;;;9.40;5.65;;;;;;;5.89;71.06;94714.78;5069380;28;20025;-78
2023/02/24 01:36:30;;;;;;;10.10;5.57;;;;;;;5.95;70.62;94698.09;5063328;28;20069;-78
2023/02/24 01:38:56;;;;;;;11.80;5.53;;;;;;;6.32;70.67;94773.84;5071232;28;20071;-78
2023/02/24 01:41:22;;;;;;;9.38;5.50;;;;;;;6.36;70.52;94777.06;5035500;28;20041;-78
2023/02/24 01:44:08;;;;;;;11.93;6.32;;;;;;;6.37;70.74;94776.13;5067759;28;20021;-77
2023/02/24 01:46:38;;;;;;;9.18;5.40;;;;;;;5.99;70.51;94704.69;5036777;28;20065;-78
2023/02/24 01:49:12;;;;;;;8.77;5.45;;;;;;;6.38;70.36;94752.81;5051388;28;20409;-78
2023/02/24 01:52:00;;;;;;;9.75;5.55;;;;;;;6.50;70.03;94766.66;5053719;28;20475;-78
2023/02/24 01:54:29;;;;;;;8.88;5.22;;;;;;;6.50;70.25;94771.81;5059303;28;20025;-78
2023/02/24 01:56:55;;;;;;;11.73;7.38;;;;;;;6.57;69.63;94770.44;5067914;28;20053;-78
2023/02/24 01:59:22;;;;;;;11.73;7.28;;;;;;;6.03;69.55;94686.34;5062914;28;20028;-77
2023/02/24 02:01:52;;;;;;;14.57;7.70;;;;;;;5.94;69.02;94660.38;5061687;28;20040;-78
2023/02/24 02:04:38;;;;;;;8.77;5.18;;;;;;;6.15;68.49;94681.28;5056342;28;20087;-78
2023/02/24 02:07:03;;;;;;;8.20;5.43;;;;;;;6.23;68.62;94700.47;5061487;28;20043;-78
2023/02/24 02:09:29;;;;;;;9.98;5.97;;;;;;;6.28;68.36;94712.25;5062813;28;20032;-77
2023/02/24 02:11:54;;;;;;;12.40;6.00;;;;;;;6.66;67.99;94762.09;5069071;28;20040;-79
2023/02/24 02:14:22;;;;;;;10.93;5.85;;;;;;;6.21;67.98;94697.22;5055033;28;20130;-79
2023/02/24 02:17:25;;;;;;;10.90;5.20;;;;;;;6.49;68.25;94752.94;5048393;28;20124;-79
2023/02/24 02:20:06;;;;;;;9.75;5.65;;;;;;;6.53;68.15;94753.53;5065814;28;20395;-79
2023/02/24 02:23:06;;;;;;;10.32;5.75;;;;;;;6.52;68.51;94757.06;5056939;28;20040;-78
2023/02/24 02:26:09;;;;;;;10.90;5.60;;;;;;;6.50;68.16;94751.16;5034781;28;20048;-79
2023/02/24 02:29:12;;;;;;;12.75;6.60;;;;;;;6.56;67.67;94766.22;5051319;28;20045;-78
2023/02/24 02:31:49;;;;;;;11.57;5.78;;;;;;;6.47;68.03;94769.44;5065958;28;20037;-79
2023/02/24 02:34:46;;;;;;;9.73;5.43;;;;;;;6.05;68.00;94683.69;5065940;28;20437;-78
2023/02/24 02:37:27;;;;;;;12.27;5.78;;;;;;;6.32;68.43;94765.28;5051615;28;20072;-79
2023/02/24 02:39:57;;;;;;;10.02;5.55;;;;;;;6.28;68.66;94772.41;5056701;28;20095;-78
2023/02/24 02:42:33;;;;;;;11.63;6.37;;;;;;;6.16;68.56;94750.84;5051700;28;20044;-78
2023/02/24 02:45:03;;;;;;;8.98;5.30;;;;;;;6.18;68.84;94763.63;5068482;28;20028;-79
2023/02/24 02:47:46;;;;;;;11.17;6.20;;;;;;;6.29;68.35;94760.34;5063472;28;20078;-78
2023/02/24 02:50:17;;;;;;;10.68;5.57;;;;;;;6.24;68.44;94765.78;5038812;28;20577;-78
2023/02/24 02:52:52;;;;;;;11.00;5.35;;;;;;;5.93;68.06;94693.03;5042433;28;20032;-79
2023/02/24 02:55:22;;;;;;;8.32;5.18;;;;;;;5.83;68.15;94679.91;5044352;28;20029;-78
2023/02/24 02:57:48;;;;;;;8.65;4.90;;;;;;;5.75;68.22;94691.66;5051153;28;20040;-78
2023/02/24 03:00:22;;;;;;;8.85;5.45;;;;;;;6.05;68.63;94755.91;5053125;28;20036;-79
2023/02/24 03:02:54;;;;;;;8.95;4.72;;;;;;;6.12;68.81;94746.81;5054365;28;20028;-79
2023/02/24 03:05:22;;;;;;;8.02;4.35;;;;;;;5.56;68.25;94648.22;5045045;28;20029;-79
2023/02/24 03:07:52;;;;;;;9.10;4.10;;;;;;;5.85;68.25;94708.19;5057849;28;20450;-78
2023/02/24 03:10:35;;;;;;;9.43;4.25;;;;;;;6.06;68.08;94736.09;5068470;28;20033;-78
2023/02/24 03:13:02;;;;;;;10.93;4.55;;;;;;;5.88;68.47;94730.34;5035822;28;20495;-78
2023/02/24 03:15:29;;;;;;;6.38;3.80;;;;;;;5.57;67.97;94650.72;5033094;28;20059;-78
2023/02/24 03:18:08;;;;;;;8.35;4.32;;;;;;;5.31;68.69;94647.25;5061098;28;20439;-78
2023/02/24 03:20:51;;;;;;;7.20;4.13;;;;;;;5.86;68.56;94743.34;5068818;28;20555;-77
2023/02/24 03:23:18;;;;;;;8.93;4.50;;;;;;;5.89;68.76;94739.75;5062617;28;20024;-77
2023/02/24 03:25:57;;;;;;;7.32;4.07;;;;;;;5.97;68.11;94725.44;5043655;28;20345;-78
2023/02/24 03:28:28;;;;;;;8.38;4.28;;;;;;;5.86;67.97;94715.00;5054172;28;20466;-78
2023/02/24 03:30:58;;;;;;;6.93;3.80;;;;;;;5.95;67.88;94737.59;5069558;28;20028;-78
2023/02/24 03:33:28;;;;;;;10.20;4.53;;;;;;;5.99;67.85;94746.81;5033659;28;20033;-78
2023/02/24 03:35:56;;;;;;;6.60;3.65;;;;;;;5.98;67.68;94744.31;5049754;28;20052;-77
2023/02/24 03:38:23;;;;;;;8.68;4.30;;;;;;;6.05;67.80;94748.16;5033561;28;20029;-76
2023/02/24 03:40:50;;;;;;;8.27;3.83;;;;;;;6.00;67.58;94737.31;5049539;28;20375;-77
2023/02/24 03:43:19;;;;;;;6.65;3.78;;;;;;;5.57;67.85;94688.53;5049617;28;20029;-76
2023/02/24 03:45:45;;;;;;;8.77;4.30;;;;;;;5.82;68.34;94740.16;5054622;28;20047;-76
2023/02/24 03:48:11;;;;;;;9.10;4.63;;;;;;;5.46;67.87;94655.75;5057324;28;20032;-76
2023/02/24 03:50:37;;;;;;;12.13;5.57;;;;;;;5.85;68.80;94740.84;5069896;28;20031;-76
2023/02/24 03:53:21;;;;;;;11.15;6.10;;;;;;;5.77;69.06;94743.94;5060080;28;20111;-76
2023/02/24 03:56:05;;;;;;;10.98;5.45;;;;;;;5.88;68.80;94740.66;5068263;28;20123;-77
2023/02/24 03:58:49;;;;;;;10.30;5.35;;;;;;;5.91;68.93;94735.31;5061254;28;20063;-76
2023/02/24 04:01:28;;;;;;;9.93;4.93;;;;;;;5.34;68.65;94646.22;5066194;28;20033;-76
2023/02/24 04:04:10;;;;;;;9.95;5.60;;;;;;;5.79;68.41;94719.72;5047304;28;20060;-77
2023/02/24 04:06:50;;;;;;;10.07;5.40;;;;;;;5.93;68.18;94736.03;5051978;28;20165;-76
2023/02/24 04:09:32;;;;;;;14.00;8.20;;;;;;;5.71;68.24;94701.34;5059258;28;20482;-76
2023/02/24 04:12:08;;;;;;;12.85;7.07;;;;;;;5.93;68.15;94730.88;5060870;28;20033;-75
2023/02/24 04:14:55;;;;;;;11.30;5.90;;;;;;;5.76;68.14;94714.75;5054688;28;20021;-75
2023/02/24 04:17:43;;;;;;;9.30;4.65;;;;;;;5.93;68.07;94734.28;5034446;28;20099;-75
2023/02/24 04:20:14;;;;;;;8.15;4.75;;;;;;;5.92;67.53;94712.00;5043504;28;20028;-75
2023/02/24 04:22:40;;;;;;;9.85;5.18;;;;;;;5.89;67.70;94696.72;5035622;28;20052;-75
2023/02/24 04:25:12;;;;;;;9.85;4.30;;;;;;;5.96;67.94;94731.53;5050164;28;20448;-75
2023/02/24 04:27:39;;;;;;;9.25;4.82;;;;;;;6.06;67.45;94729.16;5035340;28;20140;-75
2023/02/24 04:30:05;;;;;;;8.95;4.80;;;;;;;5.46;67.57;94611.94;5031809;28;20033;-75
2023/02/24 04:32:30;;;;;;;8.18;4.28;;;;;;;6.13;66.82;94707.22;5031513;28;20025;-75
2023/02/24 04:35:08;;;;;;;10.30;5.53;;;;;;;6.31;66.11;94724.94;5017659;28;20047;-75
2023/02/24 04:37:38;;;;;;;11.57;6.38;;;;;;;6.08;66.60;94717.00;5058648;28;20036;-75
2023/02/24 04:40:10;;;;;;;12.60;6.00;;;;;;;5.96;66.24;94707.47;5072801;28;20413;-75
2023/02/24 04:42:45;;;;;;;5.68;3.05;;;;;;;6.02;66.40;94728.56;5073082;28;20410;-75
2023/02/24 04:45:15;;;;;;;5.80;3.58;;;;;;;5.89;66.34;94711.38;5072689;28;20077;-75
2023/02/24 04:47:44;;;;;;;7.40;3.80;;;;;;;5.81;67.32;94723.00;5041525;28;20041;-75
2023/02/24 04:50:11;;;;;;;10.57;4.63;;;;;;;5.15;69.24;94693.78;5036412;28;20282;-75
2023/02/24 04:52:37;;;;;;;8.10;4.32;;;;;;;5.04;69.75;94674.75;5053674;28;20032;-74
2023/02/24 04:55:08;;;;;;;9.40;4.10;;;;;;;5.41;69.16;94709.31;5035893;28;20410;-76
2023/02/24 04:57:36;;;;;;;10.07;4.93;;;;;;;5.57;69.42;94714.28;5056495;28;20556;-75
2023/02/24 05:00:12;;;;;;;7.97;4.55;;;;;;;5.56;68.72;94704.91;5056003;28;20410;-75
2023/02/24 05:02:37;;;;;;;7.53;4.00;;;;;;;5.62;68.57;94712.25;5057295;28;20123;-74
2023/02/24 05:05:06;;;;;;;6.22;3.50;;;;;;;5.32;68.58;94673.81;5035291;28;20533;-74
2023/02/24 05:07:32;;;;;;;7.97;4.45;;;;;;;5.44;68.69;94679.97;5036166;28;20033;-75
2023/02/24 05:09:57;;;;;;;6.78;3.88;;;;;;;5.68;68.10;94704.09;5019281;28;20036;-75
2023/02/24 05:12:23;;;;;;;8.65;4.45;;;;;;;5.71;67.98;94706.50;5052241;28;20036;-75
2023/02/24 05:14:48;;;;;;;9.50;5.28;;;;;;;5.45;68.32;94690.16;5045401;28;20087;-74
2023/02/24 05:17:15;;;;;;;11.25;5.43;;;;;;;5.66;68.50;94708.56;5052323;28;20114;-74
2023/02/24 05:22:24;;;;;;;12.27;8.50;;;;;;;5.82;68.02;94709.22;5039595;28;20047;-75
2023/02/24 05:24:50;;;;;;;11.50;7.55;;;;;;;5.75;68.26;94713.09;5055300;28;20456;-74
2023/02/24 05:27:16;;;;;;;10.13;5.82;;;;;;;5.58;67.72;94649.78;5055296;28;20047;-75
2023/02/24 05:29:42;;;;;;;9.38;5.30;;;;;;;6.15;66.86;94707.91;5072086;28;20067;-75
2023/02/24 05:32:08;;;;;;;13.27;6.63;;;;;;;5.99;66.82;94715.00;5064372;28;20037;-75
2023/02/24 05:34:34;;;;;;;9.10;5.40;;;;;;;5.93;67.11;94721.41;5035265;28;20025;-76
2023/02/24 05:37:00;;;;;;;10.02;6.20;;;;;;;5.57;67.22;94689.38;5051889;28;20033;-75
2023/02/24 05:39:27;;;;;;;9.50;4.70;;;;;;;5.57;67.27;94683.38;5035476;28;20036;-75
2023/02/24 05:41:55;;;;;;;7.22;4.40;;;;;;;5.93;67.14;94728.28;5064025;28;20032;-75
2023/02/24 05:44:22;;;;;;;8.95;4.80;;;;;;;6.16;66.56;94726.81;5071556;28;20036;-75
2023/02/24 05:46:49;;;;;;;8.32;4.40;;;;;;;6.18;66.63;94736.06;5073092;28;20048;-75
2023/02/24 05:49:22;;;;;;;10.02;4.78;;;;;;;6.32;65.97;94734.34;5071568;28;20668;-75
2023/02/24 05:51:54;;;;;;;10.02;4.80;;;;;;;6.12;65.75;94700.38;5035420;28;20033;-75
2023/02/24 05:54:28;;;;;;;13.52;5.15;;;;;;;5.29;66.75;94622.50;5052202;28;20086;-76
2023/02/24 05:56:56;;;;;;;8.90;4.70;;;;;;;5.99;66.80;94725.31;5052653;28;20477;-76
2023/02/24 05:59:21;;;;;;;9.15;5.13;;;;;;;6.07;66.75;94732.56;5038254;28;20052;-76
2023/02/24 06:01:47;;;;;;;11.73;5.25;;;;;;;5.72;66.74;94697.84;5037766;28;20509;-76
2023/02/24 06:04:59;;;;;;;10.30;4.50;;;;;;;6.15;66.32;94735.47;5038237;28;20531;-76
2023/02/24 06:07:02;;;;;;;9.45;5.15;;;;;;;5.96;66.67;94710.06;5050263;28;20060;-76
2023/02/24 06:09:27;;;;;;;9.63;5.68;;;;;;;6.29;66.53;94739.69;5038473;28;20102;-76
2023/02/24 06:11:53;;;;;;;10.50;5.10;;;;;;;6.44;65.71;94741.25;5051288;28;20033;-76
2023/02/24 06:14:20;;;;;;;10.40;5.90;;;;;;;5.99;65.78;94666.88;5051207;28;20028;-76
2023/02/24 06:16:45;;;;;;;9.02;5.15;;;;;;;6.41;65.66;94731.16;5035344;28;20033;-76
2023/02/24 06:19:11;;;;;;;8.50;5.47;;;;;;;6.32;65.87;94721.44;5070967;28;20035;-76
2023/02/24 06:21:40;;;;;;;9.55;5.13;;;;;;;6.32;65.70;94711.94;5054302;28;20033;-76
2023/02/24 06:24:06;;;;;;;9.45;4.72;;;;;;;6.47;65.65;94741.06;5054670;28;20498;-76
2023/02/24 06:26:35;;;;;;;8.95;5.22;;;;;;;6.57;66.04;94751.56;5046536;28;20068;-76
2023/02/24 06:29:01;;;;;;;15.68;9.13;;;;;;;6.55;65.82;94754.25;5050594;28;20037;-76
2023/02/24 06:31:26;;;;;;;15.90;9.45;;;;;;;6.40;65.95;94740.63;5051797;28;20102;-76
2023/02/24 06:33:52;;;;;;;14.18;8.18;;;;;;;6.45;65.66;94722.25;5051049;28;20021;-76
2023/02/24 06:36:17;;;;;;;13.68;7.43;;;;;;;6.64;65.27;94737.31;5063381;28;20043;-76
2023/02/24 06:38:43;;;;;;;10.05;5.53;;;;;;;6.83;64.36;94726.56;5070482;28;20036;-76
2023/02/24 06:41:11;;;;;;;10.15;5.53;;;;;;;6.83;64.64;94729.13;5071820;28;20072;-76
2023/02/24 06:43:38;;;;;;;11.93;5.70;;;;;;;6.78;64.71;94723.47;5071623;28;20079;-76
2023/02/24 06:46:05;;;;;;;9.10;5.25;;;;;;;6.84;64.00;94721.28;5050013;28;20041;-76
2023/02/24 06:48:32;;;;;;;13.35;7.75;;;;;;;6.89;64.09;94728.72;5050266;28;20494;-76
2023/02/24 06:51:02;;;;;;;19.50;11.13;;;;;;;6.98;64.13;94729.81;5051769;28;20029;-76
2023/02/24 06:53:27;;;;;;;10.13;5.82;;;;;;;6.47;63.76;94640.41;5055398;28;20035;-76
2023/02/24 06:55:53;;;;;;;26.95;13.63;;;;;;;6.30;63.79;94620.13;5069540;28;20036;-76
2023/02/24 06:58:19;;;;;;;20.75;11.65;;;;;;;6.94;64.35;94734.38;5070572;28;20161;-76
2023/02/24 07:00:55;;;;;;;15.50;7.72;;;;;;;7.01;64.13;94724.44;5070125;28;20074;-76
2023/02/24 07:03:23;;;;;;;9.77;6.15;;;;;;;7.01;64.18;94727.84;5058094;28;20104;-77
2023/02/24 07:06:11;;;;;;;12.93;6.65;;;;;;;7.22;63.74;94729.88;5033975;28;20533;-77
2023/02/24 07:08:36;;;;;;;13.57;6.10;;;;;;;7.23;63.35;94729.75;5022403;28;20024;-76
2023/02/24 07:11:05;;;;;;;10.57;6.32;;;;;;;7.20;63.52;94723.97;5033690;28;20102;-76
2023/02/24 07:13:31;;;;;;;14.57;8.52;;;;;;;7.09;64.14;94716.97;5053979;28;20028;-76
2023/02/24 07:16:05;;;;;;;17.35;10.50;;;;;;;6.85;64.41;94675.63;5070077;28;20050;-76
2023/02/24 07:18:34;;;;;;;17.08;9.85;;;;;;;7.27;63.73;94709.66;5054422;28;20032;-76
2023/02/24 07:21:03;;;;;;;16.70;9.00;;;;;;;7.19;63.42;94693.88;5062607;28;20542;-76
2023/02/24 07:23:30;;;;;;;15.25;7.45;;;;;;;7.31;62.85;94704.19;5033831;28;20158;-76
2023/02/24 07:25:57;;;;;;;14.07;7.32;;;;;;;7.30;63.33;94701.69;5049841;28;20163;-76
2023/02/24 07:28:24;;;;;;;12.70;6.85;;;;;;;7.41;62.97;94706.09;5033467;28;20029;-76
2023/02/24 07:30:51;;;;;;;9.77;6.07;;;;;;;7.03;62.88;94650.25;5047621;28;20051;-76
2023/02/24 07:33:18;;;;;;;13.00;6.80;;;;;;;7.42;63.00;94707.75;5053252;28;20551;-77
2023/02/24 07:35:49;;;;;;;13.52;7.18;;;;;;;7.30;62.58;94686.19;5071015;28;20044;-76
2023/02/24 07:38:16;;;;;;;14.60;8.55;;;;;;;7.32;63.39;94712.75;5051955;28;20036;-77
2023/02/24 07:40:41;;;;;;;13.05;8.00;;;;;;;7.49;63.39;94709.78;5049531;28;20040;-76
2023/02/24 07:43:07;;;;;;;15.10;8.20;;;;;;;7.45;63.32;94692.03;5033377;28;20045;-76
2023/02/24 07:45:33;;;;;;;16.25;9.90;;;;;;;7.51;62.61;94666.56;5016457;28;20498;-76
2023/02/24 07:48:00;;;;;;;16.67;10.95;;;;;;;7.89;62.21;94700.88;5022731;28;20123;-76
2023/02/24 07:50:27;;;;;;;17.92;10.02;;;;;;;7.74;62.01;94684.72;5070704;28;20028;-76
2023/02/24 07:52:52;;;;;;;16.27;9.18;;;;;;;7.78;61.62;94675.81;5036662;28;20059;-76
2023/02/24 07:55:18;;;;;;;14.25;8.52;;;;;;;7.83;61.50;94673.72;5036286;28;20478;-76
2023/02/24 07:57:47;;;;;;;12.07;7.18;;;;;;;8.07;61.11;94689.97;5058239;28;20106;-76
2023/02/24 08:00:26;;;;;;;11.93;6.90;;;;;;;8.12;60.66;94675.88;5050545;28;20078;-76
2023/02/24 08:02:54;;;;;;;13.30;6.95;;;;;;;7.97;60.77;94676.09;5034782;28;20056;-76
2023/02/24 08:05:20;;;;;;;11.85;7.30;;;;;;;7.68;61.19;94647.22;5032745;28;20032;-76
2023/02/24 08:07:49;;;;;;;11.20;6.95;;;;;;;7.54;60.69;94599.13;5071558;28;20033;-76
2023/02/24 08:10:23;;;;;;;13.38;8.05;;;;;;;8.13;61.45;94693.03;5073478;28;20086;-76
2023/02/24 08:12:53;;;;;;;11.77;6.45;;;;;;;7.92;60.63;94670.44;5074906;28;20082;-76
2023/02/24 08:15:23;;;;;;;12.95;6.25;;;;;;;7.47;61.21;94602.28;5036435;28;20106;-76
2023/02/24 08:17:51;;;;;;;12.80;6.22;;;;;;;7.52;61.18;94613.94;5036900;28;20116;-75
2023/02/24 08:22:45;;;;;;;11.23;6.30;;;;;;;7.68;62.38;94672.25;5053514;28;20129;-76
2023/02/24 08:25:17;;;;;;;12.50;6.82;;;;;;;7.70;62.56;94676.38;5065762;28;20115;-76
2023/02/24 08:27:42;;;;;;;;;;;;;;;7.87;62.21;94682.06;5073536;28;20039;-76
2023/02/24 08:30:08;;;;;;;15.07;8.60;;;;;;;7.95;61.75;94667.63;5074437;28;19912;-76
2023/02/24 08:32:45;;;;;;;15.43;8.00;;;;;;;8.02;61.95;94686.09;5055536;28;20036;-76
2023/02/24 08:35:14;;;;;;;14.30;7.57;;;;;;;8.21;60.84;94681.19;5036701;28;20029;-76
2023/02/24 08:37:45;;;;;;;13.20;7.03;;;;;;;8.20;61.20;94671.78;5054087;28;20057;-76
2023/02/24 08:42:59;;;;;;;12.50;5.43;;;;;;;8.16;61.19;94654.84;5049845;28;20395;-76
2023/02/24 08:45:27;;;;;;;12.88;6.38;;;;;;;7.66;60.80;94586.22;5056589;28;20228;-76
2023/02/24 08:47:59;;;;;;;13.48;6.55;;;;;;;8.18;60.74;94671.06;5056278;28;20063;-76
2023/02/24 08:50:32;;;;;;;12.45;6.93;;;;;;;8.26;60.68;94652.38;5056875;28;20027;-76
2023/02/24 08:52:59;;;;;;;13.43;7.43;;;;;;;8.30;60.88;94669.31;5053634;28;20410;-76
2023/02/24 08:55:29;;;;;;;12.98;7.57;;;;;;;8.34;61.16;94675.09;5052739;28;20102;-76
2023/02/24 08:58:00;;;;;;;12.23;6.70;;;;;;;8.19;61.25;94669.28;5053654;28;20059;-76
2023/02/24 09:00:47;;;;;;;;;;;;;;;8.30;61.03;94684.81;5022868;28;20029;-76
2023/02/24 09:03:15;;;;;;;12.70;6.30;;;;;;;8.50;60.33;94676.41;5053538;28;19924;-76
2023/02/24 09:05:40;;;;;;;16.63;8.75;;;;;;;8.49;60.46;94663.56;5020143;28;20497;-76
2023/02/24 09:08:06;;;;;;;13.32;7.78;;;;;;;8.61;60.00;94675.59;5052486;28;20098;-76
2023/02/24 09:10:31;;;;;;;14.93;6.80;;;;;;;8.72;59.49;94646.28;5065707;28;20032;-76
2023/02/24 09:12:57;;;;;;;13.38;7.18;;;;;;;8.79;59.18;94659.56;5055908;28;20520;-76
2023/02/24 09:15:24;;;;;;;28.73;8.45;;;;;;;8.56;58.73;94594.03;5039225;28;20028;-76
2023/02/24 09:18:00;;;;;;;13.15;6.78;;;;;;;9.09;58.34;94671.88;5055969;28;20024;-76
2023/02/24 09:23:08;;;;;;;11.20;6.40;;;;;;;9.35;57.37;94647.28;5038120;28;20029;-76
2023/02/24 09:25:48;;;;;;;12.50;7.40;;;;;;;9.10;56.88;94595.78;5051832;28;20384;-76
2023/02/24 09:28:19;;;;;;;13.00;7.20;;;;;;;9.46;57.02;94637.81;5042976;28;20029;-76
2023/02/24 09:30:54;;;;;;;13.30;7.25;;;;;;;9.70;57.03;94666.94;5035425;28;20508;-76
2023/02/24 09:33:24;;;;;;;14.05;7.28;;;;;;;9.83;56.23;94641.66;5068492;28;20095;-76
2023/02/24 09:36:09;;;;;;;10.18;6.93;;;;;;;10.10;55.91;94648.09;5053072;28;20056;-76
2023/02/24 09:39:45;;;;;;;15.60;7.55;;;;;;;10.08;55.66;94626.63;5052989;28;20414;-76
2023/02/24 09:44:32;;;;;;;13.20;7.35;;;;;;;10.57;54.79;94634.66;5069268;28;20064;-76
2023/02/24 09:46:59;;;;;;;15.02;7.07;;;;;;;10.59;54.33;94631.00;5072122;28;20225;-76
2023/02/24 09:49:54;;;;;;;13.40;7.40;;;;;;;10.76;53.96;94626.13;5054324;28;20033;-76
2023/02/24 09:52:20;;;;;;;14.23;7.28;;;;;;;10.79;54.10;94628.47;5070174;28;20044;-76
2023/02/24 10:01:19;;;;;;;13.77;7.72;;;;;;;11.17;52.62;94620.72;5071221;28;20399;-76
2023/02/24 10:03:50;;;;;;;18.23;8.03;;;;;;;11.36;52.31;94621.69;5072591;28;20025;-76
2023/02/24 10:06:19;;;;;;;12.90;7.40;;;;;;;10.98;53.66;94615.50;5071507;28;20311;-76
2023/02/24 10:09:43;;;;;;;14.05;7.43;;;;;;;11.11;52.36;94584.84;5071448;28;20094;-76
2023/02/24 10:12:17;;;;;;;12.45;7.40;;;;;;;11.36;52.43;94606.09;4990655;28;20129;-76
2023/02/24 10:15:17;;;;;;;12.82;7.35;;;;;;;11.30;52.53;94596.22;4974356;28;20026;-76
2023/02/24 10:17:54;;;;;;;15.43;8.77;;;;;;;11.28;52.41;94591.19;5046466;28;20053;-76
2023/02/24 10:20:38;;;;;;;15.13;8.75;;;;;;;10.92;52.71;94528.50;5071026;28;20512;-76
2023/02/24 10:23:44;;;;;;;11.57;7.60;;;;;;;11.21;53.20;94594.47;5055639;28;20608;-76
2023/02/24 10:26:30;;;;;;;13.50;6.32;;;;;;;11.13;53.48;94590.75;5072132;28;20402;-76
2023/02/24 10:29:07;;;;;;;14.60;7.63;;;;;;;11.00;53.72;94594.56;5054536;28;20046;-76
2023/02/24 10:31:56;;;;;;;11.52;7.43;;;;;;;11.05;53.26;94562.00;5071351;28;20029;-76
2023/02/24 10:34:30;;;;;;;13.07;7.65;;;;;;;11.15;53.48;94572.44;5054530;28;20116;-76
2023/02/24 10:37:21;;;;;;;16.48;8.10;;;;;;;10.91;53.83;94581.41;5072283;28;20040;-76
2023/02/24 10:39:48;;;;;;;15.87;8.10;;;;;;;10.99;53.91;94575.56;5070840;28;20036;-76
2023/02/24 10:42:24;;;;;;;13.43;7.65;;;;;;;11.06;53.36;94553.28;5054291;28;20291;-76
2023/02/24 10:44:53;;;;;;;13.05;7.75;;;;;;;10.90;54.08;94576.38;5054481;28;20052;-76
2023/02/24 10:47:30;;;;;;;13.85;7.35;;;;;;;10.87;53.85;94558.44;5053365;28;20060;-78
2023/02/24 10:50:03;;;;;;;14.77;7.95;;;;;;;10.57;53.91;94492.63;5052516;28;20043;-76
2023/02/24 10:52:36;;;;;;;13.50;7.93;;;;;;;10.83;54.39;94551.88;5051752;28;20036;-76
2023/02/24 10:55:18;;;;;;;11.48;6.90;;;;;;;10.86;54.36;94538.59;5068644;28;20182;-76
2023/02/24 10:57:48;;;;;;;14.18;6.80;;;;;;;10.94;54.23;94543.94;5054626;28;20048;-76
2023/02/24 11:00:29;;;;;;;11.77;6.95;;;;;;;10.81;53.98;94487.06;5053382;28;20424;-77
2023/02/24 11:03:05;;;;;;;11.18;6.80;;;;;;;10.51;53.80;94429.06;5069393;28;20108;-76
2023/02/24 11:05:55;;;;;;;11.55;6.85;;;;;;;10.74;54.01;94497.16;5054644;28;20482;-76
2023/02/24 11:08:42;;;;;;;14.30;8.45;;;;;;;10.75;54.55;94529.16;5070542;28;20067;-76
2023/02/24 11:11:29;;;;;;;12.50;7.13;;;;;;;10.78;54.66;94517.66;5056727;28;20087;-76
2023/02/24 11:19:48;;;;;;;10.70;6.78;;;;;;;10.59;54.29;94475.16;5056450;28;20135;-76
2023/02/24 11:22:18;;;;;;;11.30;6.78;;;;;;;10.80;54.63;94479.38;5054449;28;20115;-76
2023/02/24 11:24:44;;;;;;;12.52;8.02;;;;;;;10.74;54.79;94493.75;5053354;28;20056;-76
2023/02/24 11:27:10;;;;;;;11.68;7.38;;;;;;;10.83;54.76;94505.09;5053324;28;20039;-76
2023/02/24 11:29:45;;;;;;;13.48;7.90;;;;;;;10.54;55.46;94497.28;5053314;28;20032;-76
2023/02/24 11:32:29;;;;;;;13.68;8.13;;;;;;;10.74;55.67;94488.53;5071427;28;20582;-76
2023/02/24 11:35:10;;;;;;;13.35;8.00;;;;;;;10.70;55.23;94469.00;5069691;28;20182;-76
2023/02/24 11:37:45;;;;;;;12.77;7.95;;;;;;;10.91;55.28;94481.84;5054467;28;20040;-76
2023/02/24 11:40:22;;;;;;;51.25;21.60;;;;;;;10.95;55.17;94475.44;5053209;28;20081;-77
2023/02/24 11:43:15;;;;;;;18.40;10.52;;;;;;;11.06;55.43;94477.03;5053159;28;20533;-76
2023/02/24 11:45:51;;;;;;;17.92;9.65;;;;;;;11.14;55.08;94462.41;5055439;28;20032;-76
2023/02/24 11:48:28;;;;;;;13.10;8.40;;;;;;;11.09;54.85;94456.81;5070923;28;20108;-76
2023/02/24 11:51:02;;;;;;;16.42;9.05;;;;;;;11.38;54.90;94454.16;5053236;28;20039;-76
2023/02/24 11:54:01;;;;;;;12.88;8.20;;;;;;;11.45;54.17;94444.03;5069857;28;20462;-76
2023/02/24 11:56:48;;;;;;;15.80;9.13;;;;;;;11.58;54.16;94439.31;5045010;28;20056;-77
2023/02/24 11:59:17;;;;;;;14.45;8.35;;;;;;;11.52;54.49;94428.66;5055462;28;20486;-76
2023/02/24 12:02:04;;;;;;;21.00;8.98;;;;;;;11.59;54.32;94414.94;5071125;28;20029;-76
2023/02/24 12:04:55;;;;;;;18.92;9.20;;;;;;;11.60;54.05;94419.19;5069835;28;20405;-76
2023/02/24 12:07:21;;;;;;;;;;;;;;;11.59;54.04;94412.34;5070240;28;20036;-76
2023/02/24 12:09:52;;;;;;;18.00;9.43;;;;;;;11.26;54.18;94363.47;5070753;28;19912;-76
2023/02/24 12:12:20;;;;;;;;;;;;;;;11.67;54.29;94400.38;5069921;28;20898;-76
2023/02/24 12:14:56;;;;;;;15.52;8.52;;;;;;;11.52;54.55;94400.84;5069596;28;19916;-76
2023/02/24 12:17:22;;;;;;;15.77;9.43;;;;;;;11.70;54.13;94389.69;5053053;28;20035;-76
2023/02/24 12:19:56;;;;;;;16.17;9.18;;;;;;;11.86;53.60;94384.72;5070642;28;20414;-76
2023/02/24 12:22:24;;;;;;;14.95;8.82;;;;;;;11.92;53.97;94378.91;5052874;28;20025;-75
2023/02/24 12:24:50;;;;;;;14.60;9.65;;;;;;;11.52;54.26;94325.44;5069517;28;20032;-76